Time;durP1;ratioP1;P1;durP2;ratioP2;P2;SDS_P1;SDS_P2;PMS_P1;PMS_P2;Temp;Humidity;BMP_temperature;BMP_pressure;BME280_temperature;BME280_humidity;BME280_pressure;Samples;Min_cycle;Max_cycle;Signal;HPM_P1;HPM_P2
2023/08/04 00:02:32;;;;;;;4.03;1.23;;;;;;;;;;4899146;29;20067;-69
2023/08/04 00:05:12;;;;;;;1.65;0.82;;;;;;;;;;4884435;29;20044;-69
2023/08/04 00:07:38;;;;;;;1.90;0.90;;;;;;;;;;4899830;29;20040;-69
2023/08/04 00:10:10;;;;;;;3.08;1.20;;;;;;;;;;4899672;29;20060;-68
2023/08/04 00:12:36;;;;;;;4.35;1.00;;;20.00;99.90;;;;;;4925001;23;20074;-69
2023/08/04 00:15:02;;;;;;;6.07;1.10;;;20.00;99.90;;;;;;4914995;29;20072;-69
2023/08/04 00:17:27;;;;;;;2.70;1.05;;;19.90;99.90;;;;;;4899132;29;20127;-69
2023/08/04 00:19:54;;;;;;;5.85;1.13;;;;;;;;;;4915054;29;20032;-69
2023/08/04 00:22:20;;;;;;;3.22;0.90;;;19.80;99.90;;;;;;4914431;29;20048;-69
2023/08/04 00:24:46;;;;;;;2.83;0.85;;;19.80;99.90;;;;;;4914619;29;20047;-69
2023/08/04 00:27:12;;;;;;;3.40;1.05;;;;;;;;;;4899007;29;20080;-70
2023/08/04 00:29:39;;;;;;;3.80;1.00;;;19.80;99.90;;;;;;4914812;29;20428;-69
2023/08/04 00:32:05;;;;;;;3.53;0.82;;;20.00;99.90;;;;;;4914549;29;20512;-69
2023/08/04 00:34:30;;;;;;;4.53;0.90;;;19.90;99.90;;;;;;4914731;29;20590;-70
2023/08/04 00:36:56;;;;;;;4.05;1.00;;;;;;;;;;4915874;29;20047;-70
2023/08/04 00:39:22;;;;;;;3.92;0.80;;;20.10;99.90;;;;;;4914598;29;20058;-69
2023/08/04 00:41:47;;;;;;;3.25;1.25;;;20.00;99.90;;;;;;4914443;29;20447;-69
2023/08/04 00:44:13;;;;;;;6.70;1.17;;;19.80;99.90;;;;;;4898608;29;20087;-68
2023/08/04 00:46:39;;;;;;;6.43;1.73;;;20.00;99.90;;;;;;4914844;29;20452;-68
2023/08/04 00:49:07;;;;;;;4.30;1.27;;;19.90;99.90;;;;;;4915700;29;20047;-68
2023/08/04 00:51:33;;;;;;;6.07;1.10;;;20.00;99.90;;;;;;4914286;29;20404;-69
2023/08/04 00:53:59;;;;;;;6.22;1.27;;;20.10;99.90;;;;;;4914460;29;20514;-68
2023/08/04 00:56:28;;;;;;;5.25;1.73;;;19.90;99.90;;;;;;4914569;29;20495;-68
2023/08/04 00:58:54;;;;;;;3.55;1.30;;;;;;;;;;4930076;29;20045;-68
2023/08/04 01:01:19;;;;;;;8.75;1.60;;;19.70;99.90;;;;;;4913446;29;20044;-68
2023/08/04 01:03:45;;;;;;;3.15;1.30;;;19.80;99.90;;;;;;4914376;29;20526;-69
2023/08/04 01:06:28;;;;;;;3.85;1.67;;;19.90;99.90;;;;;;4914043;29;20076;-69
2023/08/04 01:09:31;;;;;;;5.90;1.42;;;19.70;99.90;;;;;;4930063;29;20111;-69
2023/08/04 01:12:42;;;;;;;3.50;1.20;;;19.80;99.90;;;;;;4915103;29;20048;-68
2023/08/04 01:15:09;;;;;;;3.10;1.42;;;19.80;99.90;;;;;;4900165;29;20067;-68
2023/08/04 01:17:35;;;;;;;1.70;1.08;;;19.90;99.90;;;;;;4929947;29;20055;-68
2023/08/04 01:20:03;;;;;;;3.90;1.00;;;19.90;99.90;;;;;;4914022;29;20130;-68
2023/08/04 01:22:28;;;;;;;1.48;0.80;;;19.80;99.90;;;;;;4929625;29;20052;-68
2023/08/04 01:24:55;;;;;;;2.67;0.98;;;19.80;99.90;;;;;;4913856;29;20504;-68
2023/08/04 01:27:28;;;;;;;3.30;1.13;;;19.70;99.90;;;;;;4914347;29;20497;-69
2023/08/04 01:29:56;;;;;;;3.00;0.93;;;19.90;99.90;;;;;;4914022;29;20508;-68
2023/08/04 01:32:22;;;;;;;3.22;1.02;;;19.90;99.90;;;;;;4913825;29;20040;-68
2023/08/04 01:34:49;;;;;;;1.95;1.00;;;19.90;99.90;;;;;;4915429;29;20068;-68
2023/08/04 01:37:15;;;;;;;2.63;0.77;;;20.00;99.90;;;;;;4913992;29;20048;-68
2023/08/04 01:39:42;;;;;;;3.35;1.00;;;;;;;;;;4913946;29;20036;-68
2023/08/04 01:42:08;;;;;;;1.98;0.82;;;19.60;99.90;;;;;;4913733;29;20048;-68
2023/08/04 01:44:34;;;;;;;1.98;0.80;;;19.50;99.90;;;;;;4914054;29;20115;-68
2023/08/04 01:47:00;;;;;;;3.30;1.15;;;19.90;99.90;;;;;;4915162;29;20117;-68
2023/08/04 01:49:26;;;;;;;3.63;1.02;;;19.90;99.90;;;;;;4915024;29;20036;-68
2023/08/04 01:51:52;;;;;;;3.20;0.93;;;;;;;;;;4914901;29;20038;-68
2023/08/04 01:54:17;;;;;;;3.75;1.02;;;19.80;99.90;;;;;;4914870;29;20082;-69
2023/08/04 01:56:43;;;;;;;5.47;1.02;;;19.90;99.90;;;;;;4915215;29;20110;-68
2023/08/04 01:59:08;;;;;;;2.35;0.90;;;19.50;99.90;;;;;;4913727;29;20095;-68
2023/08/04 02:01:34;;;;;;;3.90;1.00;;;19.80;99.90;;;;;;4913556;29;20044;-68
2023/08/04 02:04:00;;;;;;;3.28;1.58;;;;;;;;;;4914860;29;20071;-68
2023/08/04 02:06:26;;;;;;;3.22;0.88;;;19.70;99.90;;;;;;4914970;29;20052;-69
2023/08/04 02:08:51;;;;;;;1.52;1.00;;;19.50;99.90;;;;;;4913562;29;20043;-68
2023/08/04 02:11:17;;;;;;;2.30;0.85;;;19.50;99.90;;;;;;4913425;29;20047;-69
2023/08/04 02:13:42;;;;;;;1.75;1.08;;;19.90;99.90;;;;;;4916763;29;20400;-68
2023/08/04 02:16:08;;;;;;;2.63;0.88;;;19.70;99.90;;;;;;4917027;29;20126;-68
2023/08/04 02:18:33;;;;;;;2.22;0.85;;;19.70;99.90;;;;;;4918280;29;20385;-68
2023/08/04 02:20:59;;;;;;;4.10;1.00;;;19.60;99.90;;;;;;4916900;29;20070;-68
2023/08/04 02:23:25;;;;;;;3.17;1.08;;;;;;;;;;4916731;29;20516;-68
2023/08/04 02:25:51;;;;;;;2.28;0.80;;;;;;;;;;4918234;29;20055;-68
2023/08/04 02:28:17;;;;;;;3.03;0.90;;;19.40;99.90;;;;;;4916759;29;20501;-68
2023/08/04 02:30:42;;;;;;;3.90;0.95;;;19.60;99.90;;;;;;4916810;29;20071;-68
2023/08/04 02:33:08;;;;;;;1.80;1.05;;;19.60;99.90;;;;;;4916501;29;20552;-68
2023/08/04 02:35:34;;;;;;;2.95;0.80;;;19.40;99.90;;;;;;4917989;29;20048;-68
2023/08/04 02:37:59;;;;;;;2.50;1.15;;;19.60;99.90;;;;;;4901158;29;20050;-68
2023/08/04 02:40:25;;;;;;;2.47;0.82;;;19.30;99.90;;;;;;4916793;29;20531;-68
2023/08/04 02:42:50;;;;;;;3.10;0.80;;;19.20;99.90;;;;;;4900814;29;20059;-68
2023/08/04 02:45:16;;;;;;;3.42;0.90;;;19.40;99.90;;;;;;4917816;29;20044;-68
2023/08/04 02:47:42;;;;;;;4.00;1.52;;;19.30;99.90;;;;;;4916442;29;20036;-68
2023/08/04 02:50:08;;;;;;;2.20;1.08;;;19.30;99.90;;;;;;4917561;29;20047;-68
2023/08/04 02:52:34;;;;;;;3.25;1.17;;;19.40;99.90;;;;;;4916389;29;20342;-68
2023/08/04 02:55:00;;;;;;;1.02;0.90;;;19.50;99.90;;;;;;4917642;29;20123;-69
2023/08/04 02:57:30;;;;;;;3.15;1.20;;;19.30;99.90;;;;;;4916251;29;20131;-68
2023/08/04 02:59:57;;;;;;;2.80;1.20;;;;;;;;;;4917686;29;20144;-69
2023/08/04 03:02:22;;;;;;;6.50;1.20;;;19.70;99.90;;;;;;4916180;29;20071;-68
2023/08/04 03:04:48;;;;;;;2.03;1.17;;;19.80;99.90;;;;;;4916170;29;20047;-68
2023/08/04 03:07:13;;;;;;;3.30;1.85;;;19.70;99.90;;;;;;4916038;29;20567;-68
2023/08/04 03:09:39;;;;;;;4.03;1.42;;;19.60;99.90;;;;;;4916303;29;20039;-68
2023/08/04 03:12:05;;;;;;;2.65;1.58;;;19.60;99.90;;;;;;4900053;29;20036;-68
2023/08/04 03:14:31;;;;;;;4.25;1.73;;;;;;;;;;4916313;29;20413;-69
2023/08/04 03:16:57;;;;;;;2.35;1.60;;;;;;;;;;4915887;29;20556;-68
2023/08/04 03:19:23;;;;;;;4.43;1.52;;;;;;;;;;4915854;29;20516;-69
2023/08/04 03:21:49;;;;;;;1.85;1.42;;;;;;;;;;4915674;29;20048;-68
2023/08/04 03:24:15;;;;;;;3.63;1.33;;;19.30;99.90;;;;;;4914776;29;20040;-68
2023/08/04 03:26:41;;;;;;;3.75;1.30;;;19.60;99.90;;;;;;4917050;29;20036;-68
2023/08/04 03:29:06;;;;;;;2.30;1.20;;;19.30;99.90;;;;;;4915718;29;20040;-68
2023/08/04 03:31:32;;;;;;;3.80;1.42;;;;;;;;;;4915432;29;20051;-68
2023/08/04 03:33:58;;;;;;;4.80;1.33;;;;;;;;;;4915601;29;20040;-68
2023/08/04 03:36:24;;;;;;;6.82;1.60;;;;;;;;;;4915492;29;20075;-68
2023/08/04 03:38:50;;;;;;;4.80;1.45;;;19.30;99.90;;;;;;4915522;29;20501;-69
2023/08/04 03:41:15;;;;;;;3.33;1.42;;;19.30;99.90;;;;;;4915348;29;20413;-68
2023/08/04 03:43:41;;;;;;;6.40;1.70;;;19.50;99.90;;;;;;4915367;29;20043;-68
2023/08/04 03:46:06;;;;;;;5.82;1.80;;;19.50;99.90;;;;;;4916660;29;20045;-68
2023/08/04 03:48:32;;;;;;;4.32;1.58;;;19.40;99.90;;;;;;4915598;29;20428;-68
2023/08/04 03:50:58;;;;;;;4.78;1.73;;;19.50;99.90;;;;;;4915024;29;20048;-68
2023/08/04 03:53:23;;;;;;;5.00;1.58;;;19.60;99.90;;;;;;4915494;29;20404;-68
2023/08/04 03:55:49;;;;;;;4.55;1.60;;;;;;;;;;4915235;29;20044;-68
2023/08/04 03:58:15;;;;;;;2.50;1.50;;;;;;;;;;4916545;29;20156;-68
2023/08/04 04:00:41;;;;;;;5.18;1.80;;;;;;;;;;4915148;29;20131;-68
2023/08/04 04:03:07;;;;;;;3.75;1.75;;;;;;;;;;4914811;29;20044;-68
2023/08/04 04:05:33;;;;;;;3.67;1.60;;;19.70;99.90;;;;;;4915046;29;20469;-68
2023/08/04 04:07:58;;;;;;;4.53;1.80;;;19.30;99.90;;;;;;4899300;29;20119;-68
2023/08/04 04:10:24;;;;;;;4.20;2.00;;;19.30;99.90;;;;;;4899192;29;20036;-69
2023/08/04 04:12:50;;;;;;;4.53;1.90;;;;;;;;;;4914586;29;20072;-68
2023/08/04 04:15:16;;;;;;;3.75;1.80;;;;;;;;;;4914857;29;20091;-68
2023/08/04 04:17:42;;;;;;;10.02;3.47;;;;;;;;;;4915107;29;20480;-69
2023/08/04 04:20:08;;;;;;;6.75;2.17;;;;;;;;;;4914946;29;20416;-69
2023/08/04 04:22:34;;;;;;;5.47;2.22;;;;;;;;;;4915909;29;20050;-68
2023/08/04 04:25:00;;;;;;;7.55;2.20;;;19.60;99.90;;;;;;4914702;29;20479;-68
2023/08/04 04:27:26;;;;;;;6.25;2.28;;;19.70;99.90;;;;;;4931189;29;20050;-69
2023/08/04 04:29:52;;;;;;;5.82;2.15;;;19.60;99.90;;;;;;4915248;29;20123;-69
2023/08/04 04:32:17;;;;;;;5.05;2.03;;;19.70;99.90;;;;;;4915662;29;20032;-69
2023/08/04 04:34:43;;;;;;;5.55;2.35;;;19.40;99.90;;;;;;4914652;29;20052;-69
2023/08/04 04:37:09;;;;;;;6.15;2.30;;;;;;;;;;4914576;29;20533;-68
2023/08/04 04:39:35;;;;;;;5.20;1.90;;;;;;;;;;4914534;29;20083;-68
2023/08/04 04:42:03;;;;;;;4.63;2.28;;;19.90;99.90;;;;;;4914224;29;20051;-68
2023/08/04 04:44:29;;;;;;;5.32;1.90;;;19.50;99.90;;;;;;4930230;29;20052;-68
2023/08/04 04:46:54;;;;;;;5.78;2.05;;;19.80;99.90;;;;;;4915685;29;20172;-68
2023/08/04 04:49:20;;;;;;;5.50;2.65;;;;;;;;;;4914335;29;20032;-68
2023/08/04 04:51:46;;;;;;;7.82;2.15;;;19.50;99.90;;;;;;4914215;29;20572;-68
2023/08/04 04:54:11;;;;;;;5.13;1.98;;;20.00;99.90;;;;;;4914293;29;20040;-68
2023/08/04 04:56:38;;;;;;;5.95;2.10;;;20.00;99.90;;;;;;4915536;29;20123;-68
2023/08/04 04:59:04;;;;;;;5.45;2.33;;;;;;;;;;4914584;29;20039;-69
2023/08/04 05:01:30;;;;;;;6.72;2.22;;;;;;;;;;4913965;29;20040;-68
2023/08/04 05:03:56;;;;;;;5.80;1.90;;;19.50;99.90;;;;;;4914253;29;20397;-69
2023/08/04 05:06:21;;;;;;;5.30;2.20;;;19.70;99.90;;;;;;4914311;29;20091;-68
2023/08/04 05:08:47;;;;;;;6.63;2.35;;;20.10;99.90;;;;;;4915628;29;20040;-69
2023/08/04 05:11:13;;;;;;;6.22;2.47;;;20.10;99.90;;;;;;4915187;29;20050;-68
2023/08/04 05:13:41;;;;;;;5.55;1.83;;;19.80;99.90;;;;;;4914014;29;20123;-68
2023/08/04 05:16:07;;;;;;;3.25;2.08;;;20.00;99.90;;;;;;4914030;29;20083;-68
2023/08/04 05:18:33;;;;;;;6.82;2.10;;;19.70;99.90;;;;;;4914148;29;20071;-69
2023/08/04 05:20:59;;;;;;;6.88;2.10;;;;;;;;;;4915367;29;20411;-68
2023/08/04 05:23:25;;;;;;;5.53;2.13;;;;;;;;;;4914021;29;20040;-69
2023/08/04 05:25:51;;;;;;;6.50;2.22;;;20.20;99.90;;;;;;4914197;29;20048;-68
2023/08/04 05:28:23;;;;;;;4.15;1.95;;;20.10;99.90;;;;;;4914086;29;20040;-69
2023/08/04 05:30:53;;;;;;;5.93;2.33;;;19.80;99.90;;;;;;4915158;29;20326;-68
2023/08/04 05:33:19;;;;;;;4.50;2.00;;;20.20;99.90;;;;;;4915437;29;20039;-69
2023/08/04 05:35:46;;;;;;;6.85;2.92;;;20.30;99.90;;;;;;4913976;29;20040;-69
2023/08/04 05:38:13;;;;;;;3.17;1.65;;;20.10;99.90;;;;;;4929996;29;20407;-69
2023/08/04 05:40:41;;;;;;;5.43;2.83;;;20.00;99.90;;;;;;4913963;29;20036;-68
2023/08/04 05:43:06;;;;;;;11.13;2.25;;;20.10;99.90;;;;;;4914859;29;20044;-69
2023/08/04 05:45:36;;;;;;;5.63;1.92;;;20.10;99.90;;;;;;4898092;29;20043;-69
2023/08/04 05:48:02;;;;;;;3.63;2.05;;;20.50;99.90;;;;;;4917360;29;20047;-68
2023/08/04 05:50:28;;;;;;;4.93;1.75;;;20.20;99.90;;;;;;4917657;29;20044;-69
2023/08/04 05:52:53;;;;;;;6.90;2.00;;;20.40;99.90;;;;;;4918661;29;20429;-69
2023/08/04 05:55:22;;;;;;;3.72;1.92;;;20.50;99.90;;;;;;4917629;29;20068;-69
2023/08/04 05:57:52;;;;;;;5.50;2.20;;;20.50;99.90;;;;;;4901689;29;20363;-68
2023/08/04 06:00:18;;;;;;;7.35;1.35;;;20.60;99.90;;;;;;4917520;29;20159;-69
2023/08/04 06:02:45;;;;;;;6.00;1.85;;;20.30;99.90;;;;;;4917001;29;20115;-69
2023/08/04 06:05:14;;;;;;;4.97;1.88;;;20.40;99.90;;;;;;4917116;29;20071;-68
2023/08/04 06:07:40;;;;;;;4.65;1.60;;;20.70;99.90;;;;;;4917197;29;20048;-69
2023/08/04 06:10:07;;;;;;;5.55;2.28;;;20.70;99.90;;;;;;4918422;29;20123;-69
2023/08/04 06:12:35;;;;;;;3.42;1.90;;;20.60;99.90;;;;;;4963955;23;20044;-68
2023/08/04 06:15:22;;;;;;;4.15;1.73;;;20.80;99.90;;;;;;4920759;29;20044;-68
2023/08/04 06:18:00;;;;;;;7.55;1.88;;;20.90;99.90;;;;;;4920598;29;20181;-68
2023/08/04 06:20:39;;;;;;;7.07;2.20;;;18.80;99.90;;;;;;4920151;29;20056;-68
2023/08/04 06:23:07;;;;;;;7.13;1.92;;;21.10;99.90;;;;;;4937285;29;20043;-68
2023/08/04 06:25:41;;;;;;;6.57;1.98;;;20.80;99.90;;;;;;4920523;29;20099;-68
2023/08/04 06:28:16;;;;;;;7.63;1.88;;;;;;;;;;4920819;29;20046;-68
2023/08/04 06:30:45;;;;;;;4.68;1.67;;;;;;;;;;4920546;29;20042;-68
2023/08/04 06:33:12;;;;;;;6.45;1.70;;;;;;;;;;4920181;29;20043;-72
2023/08/04 06:35:52;;;;;;;3.97;1.90;;;21.10;99.90;;;;;;4920406;29;20129;-69
2023/08/04 06:38:24;;;;;;;6.10;2.00;;;;;;;;;;4920248;29;20047;-68
2023/08/04 06:41:03;;;;;;;;;;;;;;;;;;;;;
2023/08/04 06:43:35;;;;;;;6.32;2.53;;;21.00;99.90;;;;;;4929580;29;20059;-68
2023/08/04 06:46:18;;;;;;;7.07;1.88;;;21.30;99.90;;;;;;4919774;29;20040;-68
2023/08/04 06:48:52;;;;;;;4.68;2.20;;;21.00;99.90;;;;;;4920532;29;20130;-68
2023/08/04 06:51:28;;;;;;;2.65;1.80;;;;;;;;;;4919900;29;20400;-67
2023/08/04 06:53:57;;;;;;;5.72;1.77;;;;;;;;;;4920190;29;20042;-67
2023/08/04 06:57:09;;;;;;;4.28;1.77;;;21.00;99.90;;;;;;4919610;29;20130;-68
2023/08/04 06:59:39;;;;;;;7.95;1.75;;;21.00;99.90;;;;;;4920033;29;20062;-68
2023/08/04 07:02:22;;;;;;;5.78;2.03;;;21.40;99.90;;;;;;4904342;29;20050;-68
2023/08/04 07:04:51;;;;;;;6.57;2.25;;;21.30;99.90;;;;;;4919782;29;20043;-68
2023/08/04 07:16:46;;;;;;;4.13;2.10;;;21.20;99.90;;;;;;4919402;29;20055;-67
2023/08/04 07:19:13;;;;;;;5.78;1.60;;;;;;;;;;4919617;29;20131;-67
2023/08/04 07:21:48;;;;;;;6.25;1.52;;;;;;;;;;4919601;29;20063;-67
2023/08/04 07:24:32;;;;;;;;;;;;;;;;;;;;;
2023/08/04 07:27:07;;;;;;;4.13;1.45;;;;;;;;;;4918508;29;20051;-66
2023/08/04 07:29:49;;;;;;;7.43;1.77;;;21.20;99.90;;;;;;4918966;29;20115;-67
2023/08/04 07:32:36;;;;;;;6.70;1.45;;;;;;;;;;4919117;29;20043;-67
2023/08/04 07:35:18;;;;;;;4.03;1.75;;;21.10;99.90;;;;;;4919562;29;20131;-67
2023/08/04 07:37:55;;;;;;;12.98;2.30;;;21.20;99.90;;;;;;4936339;29;20082;-67
2023/08/04 07:40:23;;;;;;;7.60;1.92;;;;;;;;;;4919610;29;20051;-67
2023/08/04 07:43:11;;;;;;;7.80;2.25;;;21.30;99.90;;;;;;4919253;29;20043;-71
2023/08/04 07:45:43;;;;;;;4.80;1.95;;;21.40;99.90;;;;;;4918830;29;20043;-67
2023/08/04 07:48:11;;;;;;;4.35;1.60;;;21.50;99.90;;;;;;4919058;29;20547;-67
2023/08/04 07:50:49;;;;;;;4.97;2.10;;;21.50;99.90;;;;;;4919088;29;20047;-67
2023/08/04 07:53:26;;;;;;;3.75;2.22;;;21.40;99.90;;;;;;4934460;29;20032;-66
2023/08/04 07:56:00;;;;;;;6.35;1.55;;;21.40;99.90;;;;;;4934282;29;20051;-67
2023/08/04 07:58:38;;;;;;;3.80;1.58;;;21.50;99.90;;;;;;4918228;29;20102;-67
2023/08/04 08:01:16;;;;;;;8.55;1.80;;;21.80;99.90;;;;;;4918427;29;20074;-67
2023/08/04 08:03:52;;;;;;;5.55;2.15;;;;;;;;;;4902856;29;20143;-67
2023/08/04 08:09:17;;;;;;;;;;;;;;;;;;;;;
2023/08/04 08:11:50;;;;;;;3.72;1.48;;;22.20;99.90;;;;;;4918537;29;20043;-65
2023/08/04 08:14:22;;;;;;;5.05;1.63;;;22.70;99.90;;;;;;4918718;29;20381;-68
2023/08/04 08:17:05;;;;;;;6.25;1.67;;;22.50;99.90;;;;;;4918830;29;20036;-69
2023/08/04 08:19:41;;;;;;;;;;;22.90;99.90;;;;;;4919089;29;20455;-67
2023/08/04 08:22:20;;;;;;;3.28;1.38;;;22.50;99.90;;;;;;4918615;29;19970;-66
2023/08/04 08:24:53;;;;;;;8.20;1.50;;;22.40;99.90;;;;;;4918303;29;20396;-66
2023/08/04 08:27:48;;;;;;;5.43;1.40;;;22.40;99.90;;;;;;4918558;29;20645;-66
2023/08/04 08:30:22;;;;;;;4.82;1.27;;;;;;;;;;4935285;29;20508;-66
2023/08/04 08:33:00;;;;;;;3.22;1.05;;;22.60;99.90;;;;;;4917757;29;20519;-67
2023/08/04 08:35:58;;;;;;;3.15;1.77;;;22.70;99.90;;;;;;4919821;29;20098;-66
2023/08/04 08:39:23;;;;;;;;;;;;;;;;;;;;;
2023/08/04 08:42:00;;;;;;;3.17;1.10;;;22.60;99.90;;;;;;4916975;29;20586;-69
2023/08/04 08:44:29;;;;;;;5.13;1.25;;;22.60;99.90;;;;;;4918238;29;20526;-65
2023/08/04 08:46:55;;;;;;;5.32;1.05;;;;;;;;;;4915752;29;20134;-65
2023/08/04 08:49:30;;;;;;;3.28;1.20;;;22.90;99.90;;;;;;4928167;29;20044;-64
2023/08/04 08:51:56;;;;;;;3.33;1.20;;;;;;;;;;4917478;29;20035;-66
2023/08/04 08:54:32;;;;;;;5.18;1.33;;;22.80;99.90;;;;;;4917701;29;20089;-66
2023/08/04 08:57:24;;;;;;;5.68;1.00;;;22.90;99.90;;;;;;4917570;29;20040;-67
2023/08/04 09:00:03;;;;;;;5.63;1.70;;;23.00;99.90;;;;;;4923167;29;20052;-68
2023/08/04 09:02:52;;;;;;;4.80;1.55;;;23.20;99.90;;;;;;4915838;29;20050;-67
2023/08/04 09:05:33;;;;;;;3.78;1.42;;;22.80;99.90;;;;;;4896454;29;20043;-68
2023/08/04 09:08:15;;;;;;;4.18;1.20;;;22.70;99.90;;;;;;4899857;29;20071;-68
2023/08/04 09:11:07;;;;;;;6.63;1.03;;;22.90;99.90;;;;;;4921974;29;20051;-68
2023/08/04 09:13:49;;;;;;;2.42;1.00;;;23.10;99.90;;;;;;4900138;29;20055;-68
2023/08/04 09:16:39;;;;;;;6.63;2.25;;;23.10;99.90;;;;;;4909482;29;20048;-67
2023/08/04 09:19:40;;;;;;;6.82;1.40;;;23.20;99.90;;;;;;4932022;29;20488;-68
2023/08/04 09:22:17;;;;;;;10.27;1.88;;;23.20;99.90;;;;;;4933886;29;20035;-68
2023/08/04 09:25:05;;;;;;;4.90;1.67;;;23.30;99.90;;;;;;4926432;29;20089;-67
2023/08/04 09:27:39;;;;;;;10.98;1.50;;;23.40;99.90;;;;;;4905384;29;20407;-67
2023/08/04 09:30:19;;;;;;;8.35;1.85;;;23.10;99.90;;;;;;4920217;29;20396;-67
2023/08/04 09:33:01;;;;;;;5.80;1.75;;;23.20;99.90;;;;;;4920027;29;20050;-68
2023/08/04 09:35:41;;;;;;;9.95;2.38;;;23.40;99.90;;;;;;4931532;29;20051;-67
2023/08/04 09:38:26;;;;;;;;;;;;;;;;;;;;;
2023/08/04 09:41:12;;;;;;;7.18;2.20;;;23.90;99.90;;;;;;4905311;29;20059;-70
2023/08/04 09:44:48;;;;;;;10.48;2.13;;;23.70;99.90;;;;;;4914739;29;20048;-71
2023/08/04 09:48:28;;;;;;;5.63;1.90;;;23.50;99.90;;;;;;4840450;29;20104;-70
2023/08/04 09:54:22;;;;;;;5.75;2.10;;;23.20;99.90;;;;;;4907295;29;20400;-70
2023/08/04 09:57:02;;;;;;;12.15;2.22;;;23.10;99.90;;;;;;4933860;29;20530;-71
2023/08/04 10:00:30;;;;;;;;;;;;;;;;;;;;;
2023/08/04 10:07:16;;;;;;;4.30;2.03;;;23.30;99.90;;;;;;4877526;29;20045;-69
2023/08/04 10:13:50;;;;;;;6.63;1.70;;;23.40;99.90;;;;;;4897710;29;20052;-71
2023/08/04 10:16:40;;;;;;;;;;;;;;;;;;;;;
2023/08/04 10:22:48;;;;;;;;;;;;;;;;;;;;;
2023/08/04 10:26:02;;;;;;;;;;;;;;;;;;;;;
2023/08/04 10:32:52;;;;;;;2.42;1.23;;;23.90;99.90;;;;;;4895407;29;20516;-70
2023/08/04 10:36:17;;;;;;;;;;;;;;;;;;;;;
2023/08/04 10:39:36;;;;;;;5.13;1.85;;;23.20;99.90;;;;;;4866561;29;20717;-70
2023/08/04 10:42:47;;;;;;;3.65;1.15;;;23.10;99.90;;;;;;4918209;29;20127;-70
2023/08/04 10:46:03;;;;;;;;;;;;;;;;;;;;;
2023/08/04 10:52:55;;;;;;;4.90;1.55;;;24.30;99.90;;;;;;4894381;29;20044;-69
2023/08/04 10:56:06;;;;;;;4.43;1.50;;;24.90;99.90;;;;;;4856101;29;20526;-70
2023/08/04 10:59:18;;;;;;;3.00;1.27;;;25.20;99.90;;;;;;4891655;29;20059;-70
2023/08/04 11:02:36;;;;;;;;;;;;;;;;;;;;;
2023/08/04 11:05:40;;;;;;;5.68;1.52;;;25.00;99.90;;;;;;4917778;29;20044;-69
2023/08/04 11:09:01;;;;;;;4.38;1.45;;;24.50;99.90;;;;;;4859918;29;20089;-70
2023/08/04 11:12:35;;;;;;;;;;;;;;;;;;;;;
2023/08/04 11:16:06;;;;;;;6.78;1.90;;;25.00;99.90;;;;;;4897533;29;20055;-70
2023/08/04 11:18:48;;;;;;;6.85;1.30;;;24.90;99.90;;;;;;4910546;29;20067;-70
2023/08/04 11:21:49;;;;;;;3.03;1.20;;;24.20;99.90;;;;;;4881850;29;20059;-70
2023/08/04 11:24:58;;;;;;;4.30;1.45;;;24.30;99.90;;;;;;4932455;29;20071;-70
2023/08/04 11:28:17;;;;;;;2.60;1.10;;;24.40;99.90;;;;;;4912515;29;20060;-69
2023/08/04 11:34:48;;;;;;;2.58;0.95;;;24.40;99.90;;;;;;4898431;29;20054;-71
2023/08/04 11:38:06;;;;;;;4.93;1.13;;;24.70;99.90;;;;;;4917862;29;20071;-70
2023/08/04 11:41:01;;;;;;;6.65;1.70;;;24.70;99.90;;;;;;4918796;29;20051;-70
2023/08/04 11:43:42;;;;;;;3.30;1.40;;;24.20;99.90;;;;;;4903443;29;20091;-73
2023/08/04 11:46:33;;;;;;;5.45;1.63;;;23.90;99.90;;;;;;4917771;29;20035;-70
2023/08/04 11:49:31;;;;;;;3.33;0.90;;;23.70;99.90;;;;;;4918575;29;20051;-70
2023/08/04 11:52:37;;;;;;;5.47;1.20;;;23.90;99.90;;;;;;4927148;29;20579;-70
2023/08/04 11:55:43;;;;;;;3.67;1.15;;;24.30;99.90;;;;;;4931468;29;20047;-70
2023/08/04 11:59:21;;;;;;;4.00;1.17;;;24.60;99.90;;;;;;4929964;29;20096;-70
2023/08/04 12:05:44;;;;;;;;;;;;;;;;;;;;;
2023/08/04 12:08:28;;;;;;;5.35;1.38;;;24.90;99.90;;;;;;4902105;29;20063;-70
2023/08/04 12:11:26;;;;;;;5.40;1.20;;;24.80;99.90;;;;;;4906906;29;20051;-70
2023/08/04 12:19:12;;;;;;;5.75;2.08;;;25.20;99.90;;;;;;4825448;29;20542;-69
2023/08/04 12:25:12;;;;;;;;;;;;;;;;;;;;;
2023/08/04 12:27:40;;;;;;;7.60;2.08;;;24.40;99.90;;;;;;4939704;23;20111;-71
2023/08/04 12:30:06;;;;;;;7.30;2.20;;;24.20;99.90;;;;;;4911988;29;20071;-71
2023/08/04 12:32:32;;;;;;;6.05;2.25;;;24.20;99.90;;;;;;4900997;29;20032;-71
2023/08/04 12:34:58;;;;;;;6.13;1.73;;;24.60;99.90;;;;;;4898889;29;20110;-70
2023/08/04 12:37:25;;;;;;;4.70;1.80;;;24.30;99.90;;;;;;4898820;29;20082;-70
2023/08/04 12:39:51;;;;;;;4.95;1.50;;;24.70;99.90;;;;;;4898784;29;20066;-70
2023/08/04 12:42:16;;;;;;;4.75;1.55;;;25.10;99.90;;;;;;4883044;29;20162;-71
2023/08/04 12:44:42;;;;;;;1.98;1.20;;;25.10;99.90;;;;;;4898611;29;20123;-71
2023/08/04 12:47:10;;;;;;;5.32;1.77;;;25.00;99.90;;;;;;4898602;29;20078;-70
2023/08/04 12:49:35;;;;;;;7.38;3.38;;;24.70;99.90;;;;;;4912422;29;20413;-71
2023/08/04 12:52:01;;;;;;;5.95;1.83;;;25.10;99.90;;;;;;4873322;29;20051;-71
2023/08/04 12:54:28;;;;;;;5.32;2.05;;;25.20;99.90;;;;;;4897622;29;20504;-70
2023/08/04 12:56:53;;;;;;;2.95;1.27;;;25.40;99.90;;;;;;4898251;29;20047;-71
2023/08/04 12:59:19;;;;;;;6.25;1.85;;;24.90;99.90;;;;;;4898600;29;20447;-70
2023/08/04 13:01:44;;;;;;;4.32;1.70;;;24.90;99.90;;;;;;4915957;29;20420;-70
2023/08/04 13:04:10;;;;;;;3.50;2.00;;;25.60;99.90;;;;;;4899540;29;20040;-71
2023/08/04 13:06:36;;;;;;;7.97;2.20;;;24.40;99.90;;;;;;4915348;29;20051;-70
2023/08/04 13:09:02;;;;;;;7.20;1.90;;;24.80;99.90;;;;;;4898714;29;20500;-70
2023/08/04 13:11:28;;;;;;;7.07;1.88;;;24.80;99.90;;;;;;4898110;29;20525;-70
2023/08/04 13:13:53;;;;;;;6.22;2.08;;;24.60;99.90;;;;;;4898417;29;20346;-70
2023/08/04 13:16:19;;;;;;;4.40;1.45;;;25.00;99.90;;;;;;4898352;29;20426;-70
2023/08/04 13:18:44;;;;;;;4.85;1.70;;;24.40;99.90;;;;;;4898344;29;20087;-70
2023/08/04 13:21:10;;;;;;;3.40;1.27;;;24.40;99.90;;;;;;4898198;29;20471;-70
2023/08/04 13:23:36;;;;;;;3.70;1.52;;;24.80;99.90;;;;;;4898573;29;20048;-70
2023/08/04 13:26:07;;;;;;;5.05;1.77;;;24.20;99.90;;;;;;4898458;29;20488;-70
2023/08/04 13:28:33;;;;;;;6.82;1.60;;;24.20;99.90;;;;;;4893416;29;20046;-71
2023/08/04 13:30:59;;;;;;;4.28;1.60;;;24.50;99.90;;;;;;4912828;29;20305;-71
2023/08/04 13:33:28;;;;;;;6.75;1.83;;;24.10;99.90;;;;;;4872138;29;20067;-72
2023/08/04 13:35:54;;;;;;;7.75;1.98;;;24.40;99.90;;;;;;4888034;29;20135;-70
2023/08/04 13:38:20;;;;;;;7.22;1.77;;;24.50;99.90;;;;;;4889534;29;20131;-70
2023/08/04 13:40:45;;;;;;;9.32;1.83;;;24.50;99.90;;;;;;4911132;29;20036;-70
2023/08/04 13:43:11;;;;;;;6.55;2.10;;;24.70;99.90;;;;;;4873048;29;20052;-70
2023/08/04 13:45:37;;;;;;;6.60;2.10;;;24.50;99.90;;;;;;4906038;29;20594;-71
2023/08/04 13:48:03;;;;;;;5.93;1.67;;;24.40;99.90;;;;;;4887489;29;20058;-70
2023/08/04 13:50:28;;;;;;;8.52;2.38;;;24.20;99.90;;;;;;4883810;29;20040;-70
2023/08/04 13:52:54;;;;;;;3.97;1.85;;;24.50;99.90;;;;;;4910754;29;20056;-70
2023/08/04 13:55:20;;;;;;;6.55;2.03;;;25.70;99.90;;;;;;4910854;29;20092;-70
2023/08/04 13:57:45;;;;;;;4.85;1.60;;;25.20;99.90;;;;;;4896270;29;20043;-70
2023/08/04 14:00:12;;;;;;;4.18;1.48;;;24.60;99.90;;;;;;4896230;29;20131;-71
2023/08/04 14:02:38;;;;;;;4.43;1.75;;;25.00;99.90;;;;;;4896109;29;20044;-71
2023/08/04 14:05:05;;;;;;;3.28;1.40;;;24.30;99.90;;;;;;4894829;29;20044;-71
2023/08/04 14:07:30;;;;;;;4.35;1.60;;;24.80;99.90;;;;;;4910519;29;20123;-71
2023/08/04 14:09:56;;;;;;;7.38;2.08;;;25.00;99.90;;;;;;4889608;29;20470;-70
2023/08/04 14:12:21;;;;;;;4.53;1.80;;;24.40;99.90;;;;;;4879609;29;20138;-71
2023/08/04 14:14:52;;;;;;;3.28;1.45;;;23.90;99.90;;;;;;4892338;29;20111;-71
2023/08/04 14:17:17;;;;;;;5.28;1.55;;;23.80;99.90;;;;;;4896052;29;20124;-71
2023/08/04 14:19:44;;;;;;;4.68;1.80;;;24.10;99.90;;;;;;4850430;29;20200;-71
2023/08/04 14:22:09;;;;;;;3.65;1.63;;;24.10;99.90;;;;;;4846998;29;20064;-71
2023/08/04 14:24:35;;;;;;;7.35;2.15;;;24.40;99.90;;;;;;4847439;29;20049;-71
2023/08/04 14:27:01;;;;;;;4.28;1.40;;;23.40;99.90;;;;;;4848432;29;20045;-70
2023/08/04 14:29:26;;;;;;;3.78;1.63;;;23.50;99.90;;;;;;4862831;29;20045;-71
2023/08/04 14:31:52;;;;;;;3.20;1.42;;;23.70;99.90;;;;;;4863566;29;20088;-71
2023/08/04 14:34:17;;;;;;;11.90;1.70;;;24.30;99.90;;;;;;4864053;29;20064;-70
2023/08/04 14:36:43;;;;;;;4.90;1.38;;;24.30;99.90;;;;;;4869973;29;20496;-71
2023/08/04 14:39:09;;;;;;;4.22;1.58;;;24.90;99.90;;;;;;4883591;29;20500;-70
2023/08/04 14:41:34;;;;;;;2.20;1.20;;;24.20;99.90;;;;;;4875074;29;20126;-71
2023/08/04 14:44:00;;;;;;;3.75;1.50;;;24.80;99.90;;;;;;4881949;29;20066;-71
2023/08/04 14:46:25;;;;;;;5.82;1.60;;;24.60;99.90;;;;;;4881840;29;20093;-71
2023/08/04 14:48:51;;;;;;;2.67;1.20;;;24.20;99.90;;;;;;4881993;29;20066;-71